Time;durP1;ratioP1;P1;durP2;ratioP2;P2;SDS_P1;SDS_P2;PMS_P1;PMS_P2;Temp;Humidity;BMP_temperature;BMP_pressure;BME280_temperature;BME280_humidity;BME280_pressure;Samples;Min_cycle;Max_cycle;Signal;HPM_P1;HPM_P2
2023/12/27 00:02:12;;;;;;;2.33;2.10;;;;;;;9.49;100.00;100947.84;5067785;28;20196;-76
2023/12/27 00:04:39;;;;;;;2.73;1.80;;;;;;;9.49;100.00;100949.53;5062358;28;20206;-78
2023/12/27 00:07:04;;;;;;;3.00;1.77;;;;;;;9.49;100.00;100941.78;5071342;28;21284;-77
2023/12/27 00:09:29;;;;;;;1.90;1.70;;;;;;;9.48;100.00;100935.75;5067409;28;20209;-77
2023/12/27 00:11:55;;;;;;;5.33;2.13;;;;;;;9.48;100.00;100925.44;5058651;28;20243;-77
2023/12/27 00:14:20;;;;;;;3.63;1.87;;;;;;;9.49;100.00;100921.09;5056575;28;20207;-77
2023/12/27 00:16:45;;;;;;;2.60;2.00;;;;;;;9.48;100.00;100927.13;5057486;28;20194;-77
2023/12/27 00:19:11;;;;;;;3.60;1.73;;;;;;;9.46;100.00;100933.16;5057325;28;20225;-77
2023/12/27 00:21:36;;;;;;;2.43;2.00;;;;;;;9.48;100.00;100924.53;5057522;28;20209;-78
2023/12/27 00:24:01;;;;;;;2.50;1.77;;;;;;;9.46;100.00;100930.56;5055590;28;20210;-76
2023/12/27 00:26:27;;;;;;;2.20;1.87;;;;;;;9.45;100.00;100931.41;5054557;28;20336;-78
2023/12/27 00:28:52;;;;;;;4.37;2.17;;;;;;;9.42;100.00;100926.25;5057185;28;20189;-78
2023/12/27 00:31:18;;;;;;;4.27;2.20;;;;;;;9.39;100.00;100918.47;5059673;28;20214;-77
2023/12/27 00:33:43;;;;;;;3.30;2.10;;;;;;;9.34;100.00;100915.00;5052536;28;20182;-75
2023/12/27 00:36:08;;;;;;;3.73;2.30;;;;;;;9.32;100.00;100921.03;5054620;28;20183;-76
2023/12/27 00:38:37;;;;;;;2.97;1.93;;;;;;;9.29;100.00;100917.56;5073104;28;20189;-77
2023/12/27 00:41:04;;;;;;;2.70;1.80;;;;;;;9.28;100.00;100912.41;5067481;28;20297;-75
2023/12/27 00:43:29;;;;;;;2.30;1.73;;;;;;;9.27;100.00;100923.59;5067722;28;20185;-78
2023/12/27 00:45:54;;;;;;;3.93;2.00;;;;;;;9.27;100.00;100923.59;5062653;28;20295;-77
2023/12/27 00:48:19;;;;;;;3.83;1.90;;;;;;;9.27;100.00;100918.41;5068361;28;20236;-76
2023/12/27 00:50:45;;;;;;;3.83;2.07;;;;;;;9.25;100.00;100925.28;5069227;28;20643;-77
2023/12/27 00:53:10;;;;;;;2.33;1.70;;;;;;;9.23;100.00;100925.25;5067584;28;20237;-77
2023/12/27 00:55:36;;;;;;;2.87;1.47;;;;;;;9.21;100.00;100924.41;5072644;28;20920;-77
2023/12/27 00:58:01;;;;;;;1.70;1.60;;;;;;;9.22;100.00;100926.13;5068368;28;20272;-76
2023/12/27 01:00:26;;;;;;;2.23;1.70;;;;;;;9.24;100.00;100923.56;5056907;28;20736;-77
2023/12/27 01:02:52;;;;;;;2.37;1.73;;;;;;;9.24;100.00;100926.97;5069227;28;20220;-77
2023/12/27 01:05:17;;;;;;;2.43;1.97;;;;;;;9.23;100.00;100904.59;5068924;28;20181;-77
2023/12/27 01:07:42;;;;;;;2.87;1.70;;;;;;;9.21;100.00;100906.31;5065442;28;20963;-77
2023/12/27 01:10:08;;;;;;;3.67;1.67;;;;;;;9.22;100.00;100918.38;5058641;28;20189;-77
2023/12/27 01:12:33;;;;;;;2.57;1.57;;;;;;;9.24;100.00;100902.88;5064354;28;20297;-76
2023/12/27 01:14:59;;;;;;;3.00;1.67;;;;;;;9.25;100.00;100908.06;5056562;28;20743;-77
2023/12/27 01:17:24;;;;;;;2.43;1.73;;;;;;;9.26;100.00;100914.94;5055325;28;20267;-76
2023/12/27 01:19:49;;;;;;;1.90;1.60;;;;;;;9.27;100.00;100927.00;5063259;28;20194;-76
2023/12/27 01:22:14;;;;;;;3.17;1.93;;;;;;;9.29;100.00;100916.72;5055780;28;20224;-77
2023/12/27 01:24:40;;;;;;;3.47;2.03;;;;;;;9.32;100.00;100916.69;5056040;28;20188;-76
2023/12/27 01:27:05;;;;;;;3.03;2.13;;;;;;;9.34;100.00;100919.31;5054170;28;20194;-76
2023/12/27 01:29:30;;;;;;;1.80;1.50;;;;;;;9.36;100.00;100913.28;5056470;28;20189;-76
2023/12/27 01:31:56;;;;;;;3.00;2.10;;;;;;;9.39;100.00;100915.03;5056914;28;20222;-77
2023/12/27 01:34:21;;;;;;;3.13;2.10;;;;;;;9.40;100.00;100921.91;5052567;28;20194;-77
2023/12/27 01:36:46;;;;;;;2.20;2.00;;;;;;;9.41;100.00;100924.53;5055004;28;20689;-76
2023/12/27 01:39:12;;;;;;;2.03;1.57;;;;;;;9.43;100.00;100930.56;5058039;28;20648;-77
2023/12/27 01:41:37;;;;;;;2.13;1.93;;;;;;;9.45;100.00;100930.56;5055246;28;21485;-77
2023/12/27 01:44:03;;;;;;;1.70;1.60;;;;;;;9.46;100.00;100935.72;5053422;28;20189;-77
2023/12/27 01:46:30;;;;;;;1.93;1.73;;;;;;;9.45;100.00;100926.25;5064468;28;20197;-76
2023/12/27 01:48:56;;;;;;;2.97;1.90;;;;;;;9.44;100.00;100921.09;5072523;28;20185;-77
2023/12/27 01:51:22;;;;;;;3.07;2.20;;;;;;;9.44;100.00;100923.66;5072632;28;21084;-77
2023/12/27 01:53:48;;;;;;;3.77;2.27;;;;;;;9.42;100.00;100921.09;5076309;28;20247;-76
2023/12/27 01:56:13;;;;;;;3.20;2.03;;;;;;;9.42;100.00;100912.47;5069470;28;20280;-77
2023/12/27 01:58:38;;;;;;;2.63;1.83;;;;;;;9.40;100.00;100912.47;5071800;28;20220;-78
2023/12/27 02:01:04;;;;;;;3.27;2.10;;;;;;;9.38;100.00;100908.13;5062885;28;20214;-77
2023/12/27 02:03:29;;;;;;;3.90;2.27;;;;;;;9.36;100.00;100908.13;5058754;28;20197;-76
2023/12/27 02:05:56;;;;;;;3.27;2.20;;;;;;;9.36;100.00;100910.72;5063685;28;20186;-76
2023/12/27 02:08:22;;;;;;;3.83;2.13;;;;;;;9.35;100.00;100906.41;5060857;28;20187;-77
2023/12/27 02:10:48;;;;;;;3.20;2.23;;;;;;;9.34;100.00;100907.25;5061271;28;20208;-77
2023/12/27 02:13:13;;;;;;;2.57;2.13;;;;;;;9.35;100.00;100905.53;5073689;28;20231;-77
2023/12/27 02:15:39;;;;;;;3.27;2.10;;;;;;;9.35;100.00;100905.53;5071710;28;20666;-77
2023/12/27 02:18:06;;;;;;;5.00;2.30;;;;;;;9.36;100.00;100910.72;5072537;28;20196;-76
2023/12/27 02:20:32;;;;;;;3.83;2.43;;;;;;;9.36;100.00;100915.03;5068871;28;20209;-77
2023/12/27 02:23:01;;;;;;;2.63;2.33;;;;;;;9.35;100.00;100913.28;5074634;28;20185;-77
2023/12/27 02:25:27;;;;;;;2.63;2.43;;;;;;;9.32;100.00;100911.53;5070611;28;20199;-77
2023/12/27 02:27:52;;;;;;;2.33;2.03;;;;;;;9.31;100.00;100909.81;5077791;28;20186;-77
2023/12/27 02:30:22;;;;;;;3.00;2.30;;;;;;;9.29;100.00;100901.22;5075267;28;20213;-76
2023/12/27 02:32:48;;;;;;;3.80;2.67;;;;;;;9.28;100.00;100902.06;5069207;28;20213;-76
2023/12/27 02:35:14;;;;;;;3.70;2.57;;;;;;;9.28;100.00;100902.06;5069669;28;20196;-76
2023/12/27 02:37:40;;;;;;;3.03;1.80;;;;;;;9.29;100.00;100896.91;5075458;28;20193;-77
2023/12/27 02:40:06;;;;;;;3.40;2.50;;;;;;;9.32;100.00;100898.63;5071011;28;20185;-76
2023/12/27 02:42:31;;;;;;;3.03;2.07;;;;;;;9.34;100.00;100896.06;5071103;28;20210;-77
2023/12/27 02:44:56;;;;;;;4.63;2.50;;;;;;;9.34;100.00;100888.31;5072105;28;20281;-77
2023/12/27 02:47:22;;;;;;;3.23;1.93;;;;;;;9.34;100.00;100890.91;5073111;28;20606;-77
2023/12/27 02:49:47;;;;;;;3.27;2.17;;;;;;;9.34;100.00;100885.75;5071246;28;20949;-76
2023/12/27 02:52:12;;;;;;;3.03;2.40;;;;;;;9.34;100.00;100888.31;5074104;28;20221;-76
2023/12/27 02:54:38;;;;;;;3.03;1.80;;;;;;;9.34;100.00;100884.00;5077203;28;20204;-76
2023/12/27 02:57:03;;;;;;;2.70;1.97;;;;;;;9.35;100.00;100888.31;5072257;28;20181;-76
2023/12/27 02:59:28;;;;;;;1.97;1.70;;;;;;;9.37;100.00;100886.59;5077574;28;20196;-75
2023/12/27 03:01:54;;;;;;;2.60;1.80;;;;;;;9.38;100.00;100883.16;5070447;28;20767;-76
2023/12/27 03:04:19;;;;;;;2.00;1.77;;;;;;;9.39;100.00;100876.28;5073129;28;20201;-77
2023/12/27 03:06:44;;;;;;;2.70;1.70;;;;;;;9.39;100.00;100882.31;5074614;28;20977;-78
2023/12/27 03:09:10;;;;;;;3.93;2.00;;;;;;;9.38;100.00;100883.16;5072592;28;20929;-77
2023/12/27 03:11:35;;;;;;;2.40;1.90;;;;;;;9.36;100.00;100877.13;5072891;28;20210;-77
2023/12/27 03:14:01;;;;;;;2.53;2.13;;;;;;;9.35;100.00;100883.16;5082842;28;20189;-76
2023/12/27 03:16:28;;;;;;;2.43;2.17;;;;;;;9.34;100.00;100878.84;5081400;28;20185;-76
2023/12/27 03:18:53;;;;;;;2.37;1.57;;;;;;;9.35;100.00;100875.41;5082962;28;20189;-76
2023/12/27 03:21:18;;;;;;;2.13;1.73;;;;;;;9.36;100.00;100871.13;5082905;28;20242;-77
2023/12/27 03:23:44;;;;;;;2.13;1.93;;;;;;;9.35;100.00;100865.06;5080554;28;20234;-77
2023/12/27 03:26:09;;;;;;;2.20;1.87;;;;;;;9.36;100.00;100864.22;5081846;28;20177;-76
2023/12/27 03:28:35;;;;;;;2.00;1.80;;;;;;;9.37;100.00;100863.34;5081309;28;20812;-77
2023/12/27 03:31:00;;;;;;;3.43;1.93;;;;;;;9.35;100.00;100857.31;5079565;28;20247;-75
2023/12/27 03:33:26;;;;;;;2.13;1.70;;;;;;;9.32;100.00;100859.88;5079651;28;20282;-77
2023/12/27 03:35:52;;;;;;;2.20;1.77;;;;;;;9.29;100.00;100859.88;5077270;28;20193;-76
2023/12/27 03:38:17;;;;;;;2.77;2.20;;;;;;;9.25;100.00;100851.22;5077555;28;20694;-77
2023/12/27 03:40:43;;;;;;;2.50;1.70;;;;;;;9.23;100.00;100849.50;5077326;28;20259;-76
2023/12/27 03:43:08;;;;;;;3.27;2.07;;;;;;;9.23;100.00;100852.94;5073680;28;20209;-77
2023/12/27 03:45:34;;;;;;;2.20;2.00;;;;;;;9.21;100.00;100852.09;5075727;28;20565;-77
2023/12/27 03:47:59;;;;;;;4.13;2.07;;;;;;;9.19;100.00;100855.50;5071574;28;20189;-76
2023/12/27 03:50:24;;;;;;;3.10;1.80;;;;;;;9.13;100.00;100849.47;5055212;28;20209;-76
2023/12/27 03:52:50;;;;;;;2.60;1.87;;;;;;;9.07;100.00;100846.84;5071564;28;20261;-76
2023/12/27 03:55:16;;;;;;;3.10;1.93;;;;;;;9.00;100.00;100839.88;5072360;28;20665;-77
2023/12/27 03:57:41;;;;;;;3.60;2.00;;;;;;;8.94;100.00;100837.28;5071427;28;20298;-77
2023/12/27 04:00:08;;;;;;;2.50;1.70;;;;;;;8.87;100.00;100836.38;5068745;28;20192;-77
2023/12/27 04:02:33;;;;;;;1.90;1.60;;;;;;;8.79;100.00;100835.44;5073779;28;20268;-76
2023/12/27 04:04:59;;;;;;;1.93;1.73;;;;;;;8.72;100.00;100836.28;5067958;28;20604;-76
2023/12/27 04:07:24;;;;;;;2.47;2.07;;;;;;;8.66;100.00;100832.78;5071808;28;20565;-76
2023/12/27 04:09:49;;;;;;;2.40;2.20;;;;;;;8.61;100.00;100821.59;5062832;28;20277;-77
2023/12/27 04:12:14;;;;;;;2.30;1.87;;;;;;;8.56;100.00;100823.25;5067846;28;20221;-77
2023/12/27 04:14:40;;;;;;;1.80;1.63;;;;;;;8.52;100.00;100821.50;5074618;28;20737;-77
2023/12/27 04:17:05;;;;;;;3.70;1.93;;;;;;;8.49;100.00;100818.88;5075017;28;20213;-77
2023/12/27 04:19:30;;;;;;;3.83;2.17;;;;;;;8.46;100.00;100819.69;5073952;28;20194;-77
2023/12/27 04:21:55;;;;;;;2.97;2.10;;;;;;;8.45;100.00;100817.13;5076216;28;20213;-78
2023/12/27 04:24:21;;;;;;;2.67;2.30;;;;;;;8.44;100.00;100817.97;5073551;28;20498;-77
2023/12/27 04:26:46;;;;;;;2.30;2.10;;;;;;;8.40;100.00;100817.06;5072649;28;20197;-76
2023/12/27 04:29:11;;;;;;;2.20;2.00;;;;;;;8.37;100.00;100820.47;5070395;28;20197;-77
2023/12/27 04:31:37;;;;;;;2.40;2.10;;;;;;;8.39;100.00;100830.81;5068277;28;20284;-77
2023/12/27 04:34:02;;;;;;;4.00;2.33;;;;;;;8.37;100.00;100830.78;5069795;28;20195;-77
2023/12/27 04:36:28;;;;;;;2.53;1.77;;;;;;;8.35;100.00;100826.47;5069976;28;20197;-77
2023/12/27 04:38:53;;;;;;;3.60;2.00;;;;;;;8.33;100.00;100820.44;5070723;28;20278;-77
2023/12/27 04:41:18;;;;;;;3.00;1.93;;;;;;;8.31;100.00;100823.03;5075647;28;20659;-78
2023/12/27 04:43:44;;;;;;;1.90;1.67;;;;;;;8.26;100.00;100818.66;5070702;28;20286;-77
2023/12/27 04:46:10;;;;;;;2.00;1.80;;;;;;;8.22;100.00;100823.81;5074984;28;20189;-76
2023/12/27 04:48:35;;;;;;;3.37;2.23;;;;;;;8.19;100.00;100810.88;5075276;28;20188;-77
2023/12/27 04:51:00;;;;;;;3.47;2.17;;;;;;;8.14;100.00;100816.84;5069737;28;20552;-77
2023/12/27 04:53:26;;;;;;;2.40;2.03;;;;;;;8.09;100.00;100812.50;5064318;28;21461;-77
2023/12/27 04:55:51;;;;;;;2.63;2.00;;;;;;;8.06;100.00;100819.34;5069719;28;20189;-76
2023/12/27 04:58:16;;;;;;;2.27;2.03;;;;;;;8.03;100.00;100814.16;5067770;28;20184;-77
2023/12/27 05:00:42;;;;;;;3.00;2.10;;;;;;;7.99;100.00;100820.13;5070893;28;20216;-77
2023/12/27 05:03:07;;;;;;;2.87;2.10;;;;;;;7.99;100.00;100822.69;5067810;28;20307;-76
2023/12/27 05:05:33;;;;;;;3.20;1.80;;;;;;;7.97;100.00;100822.69;5068109;28;20670;-77
2023/12/27 05:07:58;;;;;;;2.50;2.10;;;;;;;7.98;100.00;100818.38;5069222;28;20292;-77
2023/12/27 05:10:23;;;;;;;2.03;1.87;;;;;;;7.98;100.00;100821.84;5063789;28;20224;-77
2023/12/27 05:12:49;;;;;;;2.47;1.77;;;;;;;7.98;100.00;100820.97;5072360;28;20210;-77
2023/12/27 05:15:15;;;;;;;3.33;2.17;;;;;;;7.97;100.00;100808.91;5057320;28;21032;-77
2023/12/27 05:17:40;;;;;;;2.83;2.13;;;;;;;7.95;100.00;100806.34;5053873;28;20193;-77
2023/12/27 05:20:06;;;;;;;3.43;2.30;;;;;;;7.91;100.00;100808.03;5052286;28;20296;-78
2023/12/27 05:22:34;;;;;;;4.30;2.50;;;;;;;7.88;100.00;100807.09;5058535;28;20194;-76
2023/12/27 05:25:01;;;;;;;3.27;2.40;;;;;;;7.87;100.00;100811.41;5054456;28;20199;-77
2023/12/27 05:27:27;;;;;;;3.00;2.10;;;;;;;7.87;100.00;100807.97;5055042;28;20212;-77
2023/12/27 05:29:52;;;;;;;3.63;2.03;;;;;;;7.86;100.00;100812.25;5061120;28;20188;-77
2023/12/27 05:32:18;;;;;;;2.53;2.33;;;;;;;7.86;100.00;100811.41;5050855;28;20304;-77
2023/12/27 05:34:43;;;;;;;2.33;2.07;;;;;;;7.81;100.00;100803.59;5054344;28;20192;-77
2023/12/27 05:37:09;;;;;;;3.83;2.30;;;;;;;7.78;100.00;100804.44;5054433;28;21984;-77
2023/12/27 05:39:34;;;;;;;3.57;1.90;;;;;;;7.75;100.00;100803.56;5065940;28;20185;-76
2023/12/27 05:41:59;;;;;;;3.17;2.13;;;;;;;7.72;100.00;100798.38;5053460;28;20285;-76
2023/12/27 05:44:25;;;;;;;3.67;1.80;;;;;;;7.65;100.00;100789.72;5062352;28;20185;-78
2023/12/27 05:46:50;;;;;;;3.13;2.10;;;;;;;7.60;100.00;100789.66;5054369;28;20193;-77
2023/12/27 05:49:16;;;;;;;2.30;2.10;;;;;;;7.56;100.00;100793.03;5083464;28;20185;-77
2023/12/27 05:51:41;;;;;;;2.57;2.37;;;;;;;7.51;100.00;100792.09;5059202;28;20655;-77
2023/12/27 05:54:06;;;;;;;3.03;2.20;;;;;;;7.45;100.00;100790.34;5070989;28;20190;-77
2023/12/27 05:56:32;;;;;;;2.87;2.13;;;;;;;7.40;100.00;100794.56;5070923;28;20192;-78
2023/12/27 05:58:57;;;;;;;4.17;2.73;;;;;;;7.33;100.00;100778.16;5078240;28;20194;-77
2023/12/27 06:01:22;;;;;;;3.40;1.97;;;;;;;7.27;100.00;100767.81;5075723;28;20776;-77
2023/12/27 06:03:48;;;;;;;2.20;2.00;;;;;;;7.21;100.00;100782.31;5074390;28;20201;-77
2023/12/27 06:06:13;;;;;;;3.97;2.10;;;;;;;7.14;100.00;100792.50;5076888;28;20190;-76
2023/12/27 06:08:39;;;;;;;3.63;2.23;;;;;;;7.09;100.00;100796.75;5076510;28;20226;-78
2023/12/27 06:11:11;;;;;;;2.40;1.97;;;;;;;7.06;100.00;100796.72;5066821;28;20199;-76
2023/12/27 06:13:36;;;;;;;5.57;2.47;;;;;;;7.07;100.00;100797.56;5073767;28;20184;-77
2023/12/27 06:16:03;;;;;;;3.83;2.60;;;;;;;7.06;100.00;100785.53;5072775;28;20267;-77
2023/12/27 06:18:28;;;;;;;2.50;2.03;;;;;;;7.04;100.00;100790.66;5077017;28;21670;-77
2023/12/27 06:20:54;;;;;;;3.63;2.30;;;;;;;7.01;100.00;100786.34;5072659;28;20214;-77
2023/12/27 06:23:19;;;;;;;2.63;2.03;;;;;;;7.01;100.00;100793.19;5077507;28;20195;-77
2023/12/27 06:25:45;;;;;;;2.63;2.30;;;;;;;7.01;100.00;100796.66;5073305;28;20843;-77
2023/12/27 06:28:10;;;;;;;2.37;2.17;;;;;;;7.00;100.00;100794.91;5067390;28;20192;-78
2023/12/27 06:30:36;;;;;;;2.20;2.00;;;;;;;6.99;100.00;100790.63;5072384;28;20723;-77
2023/12/27 06:33:01;;;;;;;1.97;1.77;;;;;;;7.03;100.00;100803.53;5066230;28;21023;-77
2023/12/27 06:35:27;;;;;;;1.90;1.80;;;;;;;7.04;100.00;100800.97;5076494;28;20194;-77
2023/12/27 06:37:52;;;;;;;5.00;2.10;;;;;;;7.04;100.00;100802.66;5078951;28;20227;-77
2023/12/27 06:40:17;;;;;;;1.70;1.60;;;;;;;7.03;100.00;100799.22;5077050;28;20192;-77
2023/12/27 06:42:43;;;;;;;2.27;2.00;;;;;;;7.00;100.00;100794.03;5077085;28;20186;-76
2023/12/27 06:45:09;;;;;;;2.30;1.93;;;;;;;6.99;100.00;100800.03;5072845;28;20739;-76
2023/12/27 06:47:34;;;;;;;2.60;2.17;;;;;;;6.99;100.00;100805.19;5076074;28;20193;-77
2023/12/27 06:49:59;;;;;;;2.37;2.17;;;;;;;7.00;100.00;100809.47;5074073;28;20186;-76
2023/12/27 06:52:24;;;;;;;3.50;2.00;;;;;;;6.99;100.00;100798.34;5077599;28;20959;-76
2023/12/27 06:54:50;;;;;;;2.70;2.17;;;;;;;7.00;100.00;100794.91;5075209;28;20276;-75
2023/12/27 06:57:15;;;;;;;2.30;2.03;;;;;;;7.01;100.00;100782.91;5076147;28;20184;-76
2023/12/27 06:59:41;;;;;;;2.57;1.87;;;;;;;7.01;100.00;100782.91;5081212;28;20868;-75
2023/12/27 07:02:07;;;;;;;1.93;1.80;;;;;;;7.02;100.00;100784.63;5081842;28;20215;-80
2023/12/27 07:04:33;;;;;;;2.30;1.80;;;;;;;7.03;100.00;100786.38;5081662;28;20656;-76
2023/12/27 07:06:58;;;;;;;2.33;1.90;;;;;;;7.02;100.00;100784.63;5074372;28;20192;-77
2023/12/27 07:09:23;;;;;;;1.90;1.70;;;;;;;7.02;100.00;100784.63;5081064;28;20212;-76
2023/12/27 07:11:49;;;;;;;1.90;1.70;;;;;;;7.02;100.00;100776.91;5074809;28;20218;-76
2023/12/27 07:14:14;;;;;;;1.97;1.80;;;;;;;7.05;100.00;100776.06;5078893;28;20558;-76
2023/12/27 07:16:39;;;;;;;2.63;1.90;;;;;;;7.05;100.00;100776.97;5072231;28;20181;-75
2023/12/27 07:19:05;;;;;;;1.57;1.47;;;;;;;7.06;100.00;100778.69;5058376;28;20740;-76
2023/12/27 07:21:30;;;;;;;2.23;1.50;;;;;;;7.04;100.00;100770.09;5066276;28;20212;-76
2023/12/27 07:23:55;;;;;;;1.97;1.60;;;;;;;7.03;100.00;100773.50;5076420;28;20192;-76
2023/12/27 07:26:20;;;;;;;2.37;1.40;;;;;;;7.03;100.00;100781.22;5071231;28;20201;-77
2023/12/27 07:28:46;;;;;;;2.10;1.90;;;;;;;7.00;100.00;100787.19;5071717;28;20179;-76
2023/12/27 07:31:11;;;;;;;1.30;1.20;;;;;;;6.97;100.00;100794.88;5073699;28;20751;-76
2023/12/27 07:33:37;;;;;;;1.70;1.60;;;;;;;6.95;100.00;100798.28;5078193;28;20655;-76
2023/12/27 07:36:03;;;;;;;1.80;1.57;;;;;;;6.90;100.00;100799.91;5073801;28;20248;-75
2023/12/27 07:38:28;;;;;;;1.93;1.70;;;;;;;6.84;100.00;100801.53;5075667;28;20190;-77
2023/12/27 07:40:55;;;;;;;2.83;1.90;;;;;;;6.80;100.00;100802.34;5077633;28;20660;-76
2023/12/27 07:43:22;;;;;;;1.70;1.60;;;;;;;6.78;100.00;100805.72;5074549;28;21051;-77
2023/12/27 07:45:48;;;;;;;2.13;2.00;;;;;;;6.74;100.00;100806.50;5078423;28;21136;-76
2023/12/27 07:48:13;;;;;;;2.17;1.97;;;;;;;6.72;100.00;100803.94;5077465;28;20226;-75
2023/12/27 07:50:40;;;;;;;2.40;1.40;;;;;;;6.74;100.00;100819.38;5078260;28;20209;-76
2023/12/27 07:53:06;;;;;;;2.10;1.80;;;;;;;6.73;100.00;100818.53;5076913;28;20246;-77
2023/12/27 07:55:31;;;;;;;1.63;1.53;;;;;;;6.72;100.00;100803.94;5076203;28;20237;-77
2023/12/27 07:57:57;;;;;;;2.40;1.87;;;;;;;6.75;100.00;100801.41;5072516;28;20194;-77
2023/12/27 08:00:22;;;;;;;2.53;2.10;;;;;;;6.82;100.00;100803.22;5077912;28;20275;-76
2023/12/27 08:02:47;;;;;;;2.30;2.10;;;;;;;6.86;100.00;100801.59;5078189;28;20193;-77
2023/12/27 08:05:13;;;;;;;2.00;1.87;;;;;;;6.95;100.00;100800.84;5073133;28;20739;-77
2023/12/27 08:07:38;;;;;;;2.00;1.80;;;;;;;6.98;100.00;100803.44;5081254;28;20190;-78
2023/12/27 08:10:04;;;;;;;2.00;1.80;;;;;;;7.00;100.00;100804.34;5074513;28;20202;-76
2023/12/27 08:12:30;;;;;;;2.07;1.73;;;;;;;7.02;100.00;100810.38;5068476;28;20215;-76
2023/12/27 08:14:56;;;;;;;2.30;1.93;;;;;;;7.04;100.00;100802.66;5074945;28;20243;-76
2023/12/27 08:17:22;;;;;;;2.60;2.40;;;;;;;7.08;100.00;100796.72;5076935;28;20566;-75
2023/12/27 08:19:47;;;;;;;2.30;2.00;;;;;;;7.11;100.00;100792.47;5075639;28;20188;-77
2023/12/27 08:22:12;;;;;;;2.53;2.17;;;;;;;7.12;100.00;100775.34;5067884;28;20211;-77
2023/12/27 08:24:38;;;;;;;2.37;2.17;;;;;;;7.14;100.00;100768.50;5078104;28;20230;-76
2023/12/27 08:27:03;;;;;;;3.80;2.27;;;;;;;7.15;100.00;100755.63;5076309;28;21182;-77
2023/12/27 08:29:29;;;;;;;3.00;2.23;;;;;;;7.18;100.00;100744.53;5068041;28;20190;-76
2023/12/27 08:31:54;;;;;;;3.20;2.30;;;;;;;7.25;100.00;100737.75;5075141;28;20229;-77
2023/12/27 08:34:19;;;;;;;3.77;3.37;;;;;;;7.30;100.00;100733.50;5078429;28;20183;-76
2023/12/27 08:36:45;;;;;;;4.00;3.70;;;;;;;7.33;100.00;100746.41;5075216;28;20243;-77
2023/12/27 08:39:11;;;;;;;3.33;3.07;;;;;;;7.40;100.00;100767.94;5072278;28;20545;-77
2023/12/27 08:41:37;;;;;;;3.70;3.40;;;;;;;7.43;100.00;100760.25;5070905;28;20211;-76
2023/12/27 08:44:02;;;;;;;5.50;4.67;;;;;;;7.50;100.00;100762.03;5073376;28;20186;-76
2023/12/27 08:46:28;;;;;;;5.03;4.53;;;;;;;7.49;100.00;100757.75;5076184;28;20191;-76
2023/12/27 08:48:53;;;;;;;4.30;3.90;;;;;;;7.52;100.00;100751.78;5072600;28;20307;-75
2023/12/27 08:51:19;;;;;;;4.37;3.73;;;;;;;7.52;100.00;100749.22;5063832;28;20665;-77
2023/12/27 08:53:44;;;;;;;4.43;3.63;;;;;;;7.56;100.00;100741.53;5068601;28;20204;-76
2023/12/27 08:56:09;;;;;;;5.20;4.47;;;;;;;7.58;100.00;100734.69;5070455;28;20209;-75
2023/12/27 08:58:35;;;;;;;5.03;4.07;;;;;;;7.55;100.00;100732.06;5074832;28;20241;-75
2023/12/27 09:01:01;;;;;;;5.07;4.00;;;;;;;7.52;100.00;100719.16;5071111;28;20295;-76
2023/12/27 09:03:27;;;;;;;5.07;4.57;;;;;;;7.51;100.00;100706.28;5071277;28;20270;-77
2023/12/27 09:05:52;;;;;;;4.77;4.37;;;;;;;7.52;100.00;100721.72;5073558;28;20225;-77
2023/12/27 09:08:18;;;;;;;4.30;3.90;;;;;;;7.57;100.00;100732.94;5073755;28;20184;-76
2023/12/27 09:10:43;;;;;;;5.30;4.50;;;;;;;7.65;100.00;100737.31;5073714;28;20228;-77
2023/12/27 09:13:09;;;;;;;5.20;4.70;;;;;;;7.69;100.00;100750.25;5070765;28;20218;-76
2023/12/27 09:15:34;;;;;;;4.60;4.20;;;;;;;7.71;100.00;100758.00;5076962;28;20209;-77
2023/12/27 09:18:00;;;;;;;5.23;4.23;;;;;;;7.74;100.00;100756.31;5077062;28;20216;-76
2023/12/27 09:20:25;;;;;;;4.30;3.83;;;;;;;7.80;100.00;100754.66;5073017;28;20204;-77
2023/12/27 09:22:51;;;;;;;4.47;3.70;;;;;;;7.84;100.00;100767.56;5076729;28;20181;-76
2023/12/27 09:25:16;;;;;;;4.40;4.00;;;;;;;7.88;100.00;100769.34;5075065;28;20187;-76
2023/12/27 09:27:41;;;;;;;4.43;4.03;;;;;;;7.94;100.00;100776.25;5073358;28;20208;-77
2023/12/27 09:30:07;;;;;;;3.87;3.50;;;;;;;8.00;100.00;100771.19;5067929;28;20185;-76
2023/12/27 09:32:32;;;;;;;3.70;3.37;;;;;;;8.05;100.00;100764.31;5071589;28;20208;-76
2023/12/27 09:34:58;;;;;;;2.90;2.60;;;;;;;8.12;100.00;100757.50;5073364;28;20192;-76
2023/12/27 09:37:23;;;;;;;3.40;2.83;;;;;;;8.18;100.00;100751.53;5071154;28;20245;-76
2023/12/27 09:39:48;;;;;;;2.77;2.57;;;;;;;8.20;100.00;100718.91;5066053;28;20187;-76
2023/12/27 09:42:14;;;;;;;4.07;3.30;;;;;;;8.23;100.00;100714.66;5064852;28;20230;-76
2023/12/27 09:44:42;;;;;;;5.67;3.30;;;;;;;8.30;100.00;100725.00;5069230;28;20274;-76
2023/12/27 09:47:10;;;;;;;3.53;2.40;;;;;;;8.41;100.00;100730.25;5072213;28;20189;-77
2023/12/27 09:49:36;;;;;;;3.33;2.57;;;;;;;8.50;100.00;100731.19;5072709;28;20919;-76
2023/12/27 09:52:02;;;;;;;2.90;2.60;;;;;;;8.62;100.00;100730.41;5069761;28;20686;-75
2023/12/27 09:54:28;;;;;;;3.57;2.67;;;;;;;8.72;100.00;100726.16;5070756;28;20594;-77
2023/12/27 09:56:53;;;;;;;3.40;2.93;;;;;;;8.80;100.00;100714.19;5074364;28;20192;-77
2023/12/27 09:59:27;;;;;;;4.03;2.83;;;;;;;8.87;100.00;100721.94;5065793;28;20468;-77
2023/12/27 10:02:02;;;;;;;4.37;3.10;;;;;;;8.88;100.00;100716.81;5070087;28;20209;-76
2023/12/27 10:04:48;;;;;;;3.23;2.93;;;;;;;8.94;100.00;100713.38;5074295;28;20184;-75
2023/12/27 10:07:14;;;;;;;4.97;3.10;;;;;;;9.04;100.00;100711.72;5076125;28;20200;-76
2023/12/27 10:09:40;;;;;;;4.87;3.20;;;;;;;9.13;100.00;100709.16;5066915;28;20208;-77
2023/12/27 10:12:09;;;;;;;4.50;3.80;;;;;;;9.25;100.00;100704.03;5072198;28;20217;-76
2023/12/27 10:14:36;;;;;;;3.80;3.40;;;;;;;9.35;100.00;100699.75;5071762;28;20185;-76
2023/12/27 10:17:03;;;;;;;3.83;3.20;;;;;;;9.49;100.00;100691.16;5067695;28;20218;-77
2023/12/27 10:19:42;;;;;;;3.47;3.07;;;;;;;9.65;100.00;100685.16;5075242;28;20193;-76
2023/12/27 10:22:09;;;;;;;3.07;2.77;;;;;;;9.81;100.00;100669.66;5064960;28;20209;-77
2023/12/27 10:24:36;;;;;;;3.20;2.90;;;;;;;9.91;100.00;100667.09;5073348;28;20278;-76
2023/12/27 10:27:05;;;;;;;3.53;2.60;;;;;;;9.95;100.00;100669.69;5072048;28;20190;-76
2023/12/27 10:29:32;;;;;;;3.63;2.57;;;;;;;9.94;100.00;100666.22;5074452;28;20204;-77
2023/12/27 10:31:59;;;;;;;3.00;2.10;;;;;;;9.90;100.00;100655.03;5066089;28;20236;-76
2023/12/27 10:34:24;;;;;;;2.47;2.23;;;;;;;9.90;100.00;100659.34;5065781;28;20658;-75
2023/12/27 10:36:50;;;;;;;2.17;1.97;;;;;;;9.97;100.00;100667.97;5072901;28;20190;-77
2023/12/27 10:39:17;;;;;;;2.80;2.10;;;;;;;10.03;100.00;100653.31;5069466;28;20193;-78
2023/12/27 10:41:42;;;;;;;2.27;1.97;;;;;;;10.11;100.00;100649.84;5073041;28;20206;-77
2023/12/27 10:44:08;;;;;;;2.17;1.87;;;;;;;10.12;100.00;100630.88;5071880;28;20188;-76
2023/12/27 10:46:38;;;;;;;3.53;2.03;;;;;;;10.14;100.00;100634.31;5079005;28;20197;-76
2023/12/27 10:49:04;;;;;;;3.90;2.23;;;;;;;10.15;100.00;100636.91;5069687;28;20233;-76
2023/12/27 10:51:30;;;;;;;3.07;2.70;;;;;;;10.11;100.00;100632.63;5076400;28;20279;-78
2023/12/27 10:54:00;;;;;;;3.43;2.30;;;;;;;10.10;100.00;100636.06;5070029;28;20606;-76
2023/12/27 10:56:26;;;;;;;3.80;2.83;;;;;;;10.05;100.00;100633.50;5071164;28;20197;-76
2023/12/27 10:58:55;;;;;;;5.23;2.73;;;;;;;10.03;100.00;100618.81;5075813;28;20629;-77
2023/12/27 11:01:21;;;;;;;2.67;2.37;;;;;;;9.98;100.00;100620.56;5059854;28;20205;-76
2023/12/27 11:03:47;;;;;;;2.67;2.40;;;;;;;10.02;100.00;100611.91;5071869;28;20186;-76
2023/12/27 11:06:14;;;;;;;3.33;2.70;;;;;;;10.16;100.00;100611.91;5079705;28;20177;-76
2023/12/27 11:08:41;;;;;;;4.13;2.90;;;;;;;10.31;100.00;100611.00;5079782;28;20576;-77
2023/12/27 11:11:08;;;;;;;4.37;2.60;;;;;;;10.41;100.00;100611.88;5079575;28;20206;-76
2023/12/27 11:13:35;;;;;;;4.20;2.57;;;;;;;10.49;100.00;100612.72;5074865;28;20214;-76
2023/12/27 11:16:02;;;;;;;4.17;2.43;;;;;;;10.57;100.00;100607.53;5078837;28;20191;-76
2023/12/27 11:18:31;;;;;;;3.30;2.67;;;;;;;10.66;100.00;100597.97;5076175;28;20679;-76